createdAt,value
2022-12-25T00:01:46.237Z,7.47
2022-12-25T00:04:12.751Z,7.42
2022-12-25T00:06:39.207Z,7.53
2022-12-25T00:09:05.648Z,7.40
2022-12-25T00:11:32.045Z,7.45
2022-12-25T00:13:58.434Z,7.44
2022-12-25T00:16:26.634Z,7.40
2022-12-25T00:18:53.984Z,7.48
2022-12-25T00:21:21.534Z,7.43
2022-12-25T00:23:48.351Z,7.43
2022-12-25T00:26:17.062Z,7.47
2022-12-25T00:28:44.337Z,7.41
2022-12-25T00:31:16.758Z,7.42
2022-12-25T00:33:45.610Z,7.39
2022-12-25T00:36:13.559Z,7.35
2022-12-25T00:38:40.659Z,7.39
2022-12-25T00:41:09.626Z,7.46
2022-12-25T00:43:36.699Z,7.42
2022-12-25T00:46:05.457Z,7.53
2022-12-25T00:48:32.778Z,7.51
2022-12-25T00:51:02.396Z,7.56
2022-12-25T00:53:29.582Z,7.68
2022-12-25T00:55:59.063Z,7.79
2022-12-25T00:58:28.398Z,7.76
2022-12-25T01:00:55.043Z,7.83
2022-12-25T01:03:21.641Z,7.82
2022-12-25T01:06:02.985Z,7.88
2022-12-25T01:08:31.370Z,7.95
2022-12-25T01:11:08.299Z,8.00
2022-12-25T01:13:36.834Z,8.05
2022-12-25T01:16:07.616Z,8.13
2022-12-25T01:18:34.414Z,8.05
2022-12-25T01:21:12.879Z,8.13
2022-12-25T01:23:39.343Z,8.23
2022-12-25T01:26:09.685Z,8.22
2022-12-25T01:28:37.046Z,8.16
2022-12-25T01:31:04.139Z,8.19
2022-12-25T01:33:30.672Z,8.21
2022-12-25T01:35:58.524Z,8.21
2022-12-25T01:38:24.976Z,8.26
2022-12-25T01:40:51.419Z,8.30
2022-12-25T01:43:25.646Z,8.33
2022-12-25T01:45:55.272Z,8.26
2022-12-25T01:48:34.056Z,8.29
2022-12-25T01:51:29.908Z,8.33
2022-12-25T01:54:00.356Z,8.36
2022-12-25T01:56:28.927Z,8.41
2022-12-25T01:58:57.504Z,8.39
2022-12-25T02:01:24.213Z,8.42
2022-12-25T02:03:54.875Z,8.43
2022-12-25T02:06:21.819Z,8.36
2022-12-25T02:08:49.645Z,8.39
2022-12-25T02:11:35.992Z,8.43
2022-12-25T02:14:02.775Z,8.45
2022-12-25T02:16:35.537Z,8.48
2022-12-25T02:19:44.781Z,8.51
2022-12-25T02:22:38.948Z,8.51
2022-12-25T02:25:30.434Z,8.55
2022-12-25T02:28:10.018Z,8.52
2022-12-25T02:30:44.082Z,8.51
2022-12-25T02:33:38.815Z,8.51
2022-12-25T02:36:09.318Z,8.46
2022-12-25T02:39:04.629Z,8.51
2022-12-25T02:41:37.512Z,8.46
2022-12-25T02:44:29.516Z,8.47
2022-12-25T02:47:14.916Z,8.45
2022-12-25T02:50:02.331Z,8.43
2022-12-25T02:52:49.507Z,8.45
2022-12-25T02:55:39.656Z,8.44
2022-12-25T02:58:30.948Z,8.43
2022-12-25T03:01:25.983Z,8.39
2022-12-25T03:04:14.938Z,8.36
2022-12-25T03:06:56.761Z,8.47
2022-12-25T03:09:45.729Z,8.41
2022-12-25T03:12:33.713Z,8.37
2022-12-25T03:15:19.085Z,8.36
2022-12-25T03:17:45.508Z,8.39
2022-12-25T03:20:30.753Z,8.31
2022-12-25T03:23:16.008Z,8.30
2022-12-25T03:26:00.810Z,8.32
2022-12-25T03:28:27.324Z,8.33
2022-12-25T03:31:21.322Z,8.41
2022-12-25T03:34:12.615Z,8.32
2022-12-25T03:37:20.261Z,8.34
2022-12-25T03:39:53.793Z,8.36
2022-12-25T03:43:06.776Z,8.34
2022-12-25T03:46:00.019Z,8.36
2022-12-25T03:48:49.239Z,8.33
2022-12-25T03:51:39.403Z,8.40
2022-12-25T03:54:27.888Z,8.33
2022-12-25T03:57:14.818Z,8.35
2022-12-25T03:59:59.652Z,8.34
2022-12-25T04:02:44.520Z,8.34
2022-12-25T04:05:29.467Z,8.41
2022-12-25T04:08:14.697Z,8.37
2022-12-25T04:10:59.397Z,8.34
2022-12-25T04:13:45.341Z,8.38
2022-12-25T04:16:30.083Z,8.33
2022-12-25T04:19:14.866Z,8.33
2022-12-25T04:21:59.695Z,8.38
2022-12-25T04:24:44.452Z,8.40
2022-12-25T04:27:29.592Z,8.41
2022-12-25T04:30:14.389Z,8.43
2022-12-25T04:32:59.236Z,8.40
2022-12-25T04:35:44.013Z,8.42
2022-12-25T04:38:10.424Z,8.46
2022-12-25T04:40:36.782Z,8.44
2022-12-25T04:43:03.183Z,8.44
2022-12-25T04:45:29.685Z,8.50
2022-12-25T04:47:58.669Z,8.48
2022-12-25T04:50:25.141Z,8.47
2022-12-25T04:52:51.509Z,8.45
2022-12-25T04:55:17.920Z,8.46
2022-12-25T04:57:45.121Z,8.49
2022-12-25T05:00:11.903Z,8.48
2022-12-25T05:02:38.426Z,8.48
2022-12-25T05:05:05.241Z,8.48
2022-12-25T05:07:33.042Z,8.44
2022-12-25T05:09:59.514Z,8.45
2022-12-25T05:12:25.909Z,8.51
2022-12-25T05:14:52.291Z,8.46
2022-12-25T05:17:18.746Z,8.50
2022-12-25T05:19:45.100Z,8.49
2022-12-25T05:22:11.461Z,8.50
2022-12-25T05:24:37.898Z,8.48
2022-12-25T05:27:04.298Z,8.47
2022-12-25T05:29:30.678Z,8.45
2022-12-25T05:31:57.111Z,8.44
2022-12-25T05:34:23.584Z,8.43
2022-12-25T05:36:50.053Z,8.47
2022-12-25T05:39:16.485Z,8.45
2022-12-25T05:41:42.874Z,8.43
2022-12-25T05:44:09.326Z,8.44
2022-12-25T05:46:35.782Z,8.42
2022-12-25T05:49:02.188Z,8.44
2022-12-25T05:51:28.656Z,8.43
2022-12-25T05:53:55.056Z,8.46
2022-12-25T05:56:21.481Z,8.50
2022-12-25T05:58:48.157Z,8.55
2022-12-25T06:01:18.193Z,8.52
2022-12-25T06:03:44.828Z,8.51
2022-12-25T06:06:12.341Z,8.45
2022-12-25T06:08:38.889Z,8.44
2022-12-25T06:11:07.449Z,8.38
2022-12-25T06:13:35.048Z,8.47
2022-12-25T06:16:10.278Z,8.48
2022-12-25T06:18:41.909Z,8.43
2022-12-25T06:21:10.851Z,8.48
2022-12-25T06:23:38.116Z,8.48
2022-12-25T06:26:16.253Z,8.43
2022-12-25T06:28:42.987Z,8.46
2022-12-25T06:31:17.634Z,8.53
2022-12-25T06:33:44.558Z,8.41
2022-12-25T06:36:15.308Z,8.42
2022-12-25T06:38:42.208Z,8.46
2022-12-25T06:41:11.556Z,8.52
2022-12-25T06:43:38.260Z,8.42
2022-12-25T06:46:10.252Z,8.38
2022-12-25T06:48:38.045Z,8.35
2022-12-25T06:51:05.572Z,8.38
2022-12-25T06:53:39.920Z,8.44
2022-12-25T06:56:10.671Z,8.38
2022-12-25T06:58:37.091Z,8.41
2022-12-25T07:01:15.323Z,8.44
2022-12-25T07:03:43.923Z,8.44
2022-12-25T07:06:10.369Z,8.48
2022-12-25T07:08:37.025Z,8.50
2022-12-25T07:11:03.418Z,8.51
2022-12-25T07:13:29.986Z,8.42
2022-12-25T07:16:01.259Z,8.49
2022-12-25T07:18:28.010Z,8.45
2022-12-25T07:20:59.295Z,8.50
2022-12-25T07:23:28.742Z,8.48
2022-12-25T07:25:57.029Z,8.50
2022-12-25T07:28:23.427Z,8.43
2022-12-25T07:30:49.959Z,8.45
2022-12-25T07:33:16.778Z,8.42
2022-12-25T07:35:43.358Z,8.42
2022-12-25T07:38:09.961Z,8.45
2022-12-25T07:40:36.352Z,8.41
2022-12-25T07:43:02.785Z,8.41
2022-12-25T07:45:29.337Z,8.42
2022-12-25T07:47:56.925Z,8.47
2022-12-25T07:50:26.324Z,8.45
2022-12-25T07:52:52.710Z,8.50
2022-12-25T07:55:19.084Z,8.51
2022-12-25T07:57:45.464Z,8.58
2022-12-25T08:00:12.495Z,8.57
2022-12-25T08:02:39.831Z,8.52
2022-12-25T08:05:07.338Z,8.43
2022-12-25T08:07:35.493Z,8.50
2022-12-25T08:10:02.662Z,8.54
2022-12-25T08:12:29.219Z,8.54
2022-12-25T08:14:55.801Z,8.52
2022-12-25T08:17:22.189Z,8.54
2022-12-25T08:19:48.545Z,8.53
2022-12-25T08:22:15.287Z,8.55
2022-12-25T08:24:41.735Z,8.56
2022-12-25T08:27:08.120Z,8.57
2022-12-25T08:29:34.495Z,8.60
2022-12-25T08:32:00.885Z,8.62
2022-12-25T08:34:27.253Z,8.64
2022-12-25T08:36:53.651Z,8.66
2022-12-25T08:39:20.026Z,8.68
2022-12-25T08:41:46.437Z,8.69
2022-12-25T08:44:14.135Z,8.76
2022-12-25T08:46:40.704Z,8.67
2022-12-25T08:49:07.187Z,8.63
2022-12-25T08:51:34.230Z,8.66
2022-12-25T08:54:01.154Z,8.70
2022-12-25T08:56:28.000Z,8.73
2022-12-25T08:58:54.422Z,8.71
2022-12-25T09:01:21.884Z,8.75
2022-12-25T09:03:48.419Z,8.77
2022-12-25T09:06:16.275Z,8.72
2022-12-25T09:08:48.526Z,8.72
2022-12-25T09:11:17.682Z,8.70
2022-12-25T09:13:44.060Z,8.69
2022-12-25T09:16:17.405Z,8.73
2022-12-25T09:18:44.103Z,8.78
2022-12-25T09:21:12.507Z,8.70
2022-12-25T09:23:39.467Z,8.73
2022-12-25T09:26:08.608Z,8.75
2022-12-25T09:28:35.086Z,8.69
2022-12-25T09:31:01.635Z,8.72
2022-12-25T09:33:28.086Z,8.71
2022-12-25T09:36:00.974Z,8.69
2022-12-25T09:38:28.287Z,8.71
2022-12-25T09:41:29.962Z,8.79
2022-12-25T09:44:14.789Z,8.76
2022-12-25T09:46:47.229Z,8.89
2022-12-25T09:49:37.847Z,8.93
2022-12-25T09:52:18.274Z,8.90
2022-12-25T09:54:44.587Z,8.92
2022-12-25T09:57:12.708Z,8.83
2022-12-25T09:59:40.127Z,8.89
2022-12-25T10:02:30.960Z,8.90
2022-12-25T10:05:10.769Z,8.91
2022-12-25T10:07:43.473Z,8.91
2022-12-25T10:10:37.384Z,8.90
2022-12-25T10:13:25.270Z,8.92
2022-12-25T10:16:11.106Z,8.93
2022-12-25T10:18:58.916Z,8.93
2022-12-25T10:21:28.133Z,8.93
2022-12-25T10:24:05.480Z,8.94
2022-12-25T10:26:34.277Z,9.00
2022-12-25T10:29:13.525Z,9.05
2022-12-25T10:31:46.643Z,9.06
2022-12-25T10:34:14.424Z,8.98
2022-12-25T10:36:43.447Z,8.99
2022-12-25T10:39:18.872Z,9.11
2022-12-25T10:42:07.671Z,9.04
2022-12-25T10:44:34.761Z,9.00
2022-12-25T10:47:03.721Z,8.97
2022-12-25T10:49:37.235Z,9.04
2022-12-25T10:52:16.467Z,9.08
2022-12-25T10:54:43.597Z,8.97
2022-12-25T10:57:23.695Z,9.04
2022-12-25T11:00:28.450Z,9.04
2022-12-25T11:03:00.811Z,9.15
2022-12-25T11:05:31.925Z,9.06
2022-12-25T11:08:26.107Z,9.11
2022-12-25T11:11:22.755Z,9.15
2022-12-25T11:13:56.279Z,9.14
2022-12-25T11:16:35.250Z,9.19
2022-12-25T11:19:02.165Z,9.18
2022-12-25T11:22:06.244Z,9.26
2022-12-25T11:24:39.421Z,9.27
2022-12-25T11:29:52.685Z,9.39
2022-12-25T11:32:25.119Z,9.43
2022-12-25T11:34:53.293Z,9.53
2022-12-25T11:37:40.599Z,9.65
2022-12-25T11:40:13.621Z,9.71
2022-12-25T11:42:44.111Z,9.74
2022-12-25T11:45:31.340Z,9.87
2022-12-25T11:48:12.028Z,9.96
2022-12-25T11:50:50.296Z,9.89
2022-12-25T11:53:28.051Z,9.90
2022-12-25T11:56:02.937Z,9.94
2022-12-25T11:58:52.557Z,10.02
2022-12-25T12:01:42.543Z,10.05
2022-12-25T12:04:40.335Z,10.01
2022-12-25T12:07:30.541Z,10.02
2022-12-25T12:10:25.500Z,10.12
2022-12-25T12:13:27.725Z,10.06
2022-12-25T12:15:54.619Z,10.09
2022-12-25T12:18:26.891Z,10.14
2022-12-25T12:21:00.952Z,10.26
2022-12-25T12:23:30.107Z,10.26
2022-12-25T12:25:57.494Z,10.34
2022-12-25T12:28:32.185Z,10.32
2022-12-25T12:31:08.890Z,10.37
2022-12-25T12:33:41.182Z,10.27
2022-12-25T12:36:13.005Z,10.29
2022-12-25T12:38:41.135Z,10.24
2022-12-25T12:41:09.531Z,10.28
2022-12-25T12:43:42.773Z,10.19
2022-12-25T12:46:31.603Z,10.18
2022-12-25T12:49:32.357Z,10.24
2022-12-25T12:52:25.152Z,10.21
2022-12-25T12:55:16.876Z,10.34
2022-12-25T12:57:43.523Z,10.25
2022-12-25T13:00:19.728Z,10.27
2022-12-25T13:03:16.555Z,10.25
2022-12-25T13:05:48.084Z,10.26
2022-12-25T13:08:14.568Z,10.25
2022-12-25T13:11:13.508Z,10.19
2022-12-25T13:13:42.576Z,10.19
2022-12-25T13:16:39.031Z,10.17
2022-12-25T13:19:08.496Z,10.23
2022-12-25T13:21:35.680Z,10.26
2022-12-25T13:24:08.782Z,10.25
2022-12-25T13:26:35.578Z,10.21
2022-12-25T13:29:07.828Z,10.30
2022-12-25T13:31:37.801Z,10.26
2022-12-25T13:34:37.097Z,10.32
2022-12-25T13:37:09.796Z,10.27
2022-12-25T13:39:39.590Z,10.29
2022-12-25T13:42:09.438Z,10.35
2022-12-25T13:44:50.410Z,10.35
2022-12-25T13:47:31.559Z,10.41
2022-12-25T13:50:00.008Z,10.39
2022-12-25T13:52:37.743Z,10.40
2022-12-25T13:55:11.025Z,10.38
2022-12-25T13:57:41.394Z,10.48
2022-12-25T14:00:18.789Z,10.45
2022-12-25T14:02:45.886Z,10.52
2022-12-25T14:05:41.755Z,10.49
2022-12-25T14:08:24.171Z,10.59
2022-12-25T14:10:52.759Z,10.63
2022-12-25T14:13:23.295Z,10.63
2022-12-25T14:15:51.141Z,10.68
2022-12-25T14:18:20.066Z,10.67
2022-12-25T14:21:11.719Z,10.72
2022-12-25T14:23:43.671Z,10.67
2022-12-25T14:26:18.580Z,10.74
2022-12-25T14:29:17.483Z,10.68
2022-12-25T14:31:45.917Z,10.76
2022-12-25T14:34:18.538Z,10.75
2022-12-25T14:36:45.456Z,10.76
2022-12-25T14:39:32.688Z,10.84
2022-12-25T14:42:01.815Z,10.77
2022-12-25T14:44:34.594Z,10.79
2022-12-25T14:47:20.822Z,10.85
2022-12-25T14:49:48.088Z,10.80
2022-12-25T14:52:19.510Z,10.96
2022-12-25T14:54:49.717Z,10.89
2022-12-25T14:57:35.642Z,10.88
2022-12-25T15:00:21.031Z,10.88
2022-12-25T15:02:49.972Z,10.87
2022-12-25T15:05:31.837Z,10.88
2022-12-25T15:08:06.409Z,10.81
2022-12-25T15:13:20.448Z,10.87
2022-12-25T15:15:54.498Z,10.84
2022-12-25T15:18:23.709Z,10.84
2022-12-25T15:20:54.871Z,10.81
2022-12-25T15:23:21.897Z,10.81
2022-12-25T15:25:50.910Z,10.82
2022-12-25T15:28:17.506Z,10.86
2022-12-25T15:30:44.209Z,10.83
2022-12-25T15:33:14.932Z,10.86
2022-12-25T15:35:44.149Z,10.79
2022-12-25T15:38:12.362Z,10.80
2022-12-25T15:40:39.521Z,10.88
2022-12-25T15:43:11.191Z,10.77
2022-12-25T15:45:47.396Z,10.83
2022-12-25T15:48:13.919Z,10.92
2022-12-25T15:50:40.517Z,10.88
2022-12-25T15:53:07.027Z,10.89
2022-12-25T15:55:34.374Z,10.84
2022-12-25T15:58:03.340Z,10.81
2022-12-25T16:00:29.857Z,10.83
2022-12-25T16:02:57.010Z,10.87
2022-12-25T16:05:23.809Z,10.88
2022-12-25T16:07:50.395Z,10.85
2022-12-25T16:10:19.570Z,10.81
2022-12-25T16:12:46.094Z,10.83
2022-12-25T16:15:14.543Z,10.94
2022-12-25T16:17:41.129Z,10.86
2022-12-25T16:20:09.155Z,10.81
2022-12-25T16:22:39.975Z,10.77
2022-12-25T16:25:13.400Z,10.73
2022-12-25T16:27:39.992Z,10.68
2022-12-25T16:30:07.378Z,10.74
2022-12-25T16:32:34.101Z,10.76
2022-12-25T16:35:00.825Z,10.74
2022-12-25T16:37:30.258Z,10.69
2022-12-25T16:39:56.834Z,10.74
2022-12-25T16:42:23.450Z,10.68
2022-12-25T16:44:49.950Z,10.63
2022-12-25T16:47:16.450Z,10.60
2022-12-25T16:49:43.086Z,10.68
2022-12-25T16:52:09.689Z,10.66
2022-12-25T16:54:36.373Z,10.72
2022-12-25T16:57:03.045Z,10.71
2022-12-25T16:59:30.261Z,10.62
2022-12-25T17:01:56.909Z,10.58
2022-12-25T17:04:23.709Z,10.58
2022-12-25T17:06:50.160Z,10.67
2022-12-25T17:09:16.777Z,10.67
2022-12-25T17:11:43.266Z,10.78
2022-12-25T17:14:10.702Z,10.76
2022-12-25T17:16:38.473Z,10.77
2022-12-25T17:19:09.607Z,10.85
2022-12-25T17:21:38.312Z,10.93
2022-12-25T17:24:06.674Z,10.91
2022-12-25T17:26:33.339Z,10.80
2022-12-25T17:29:00.829Z,10.88
2022-12-25T17:31:27.893Z,10.83
2022-12-25T17:33:54.564Z,10.80
2022-12-25T17:36:22.863Z,10.80
2022-12-25T17:38:49.709Z,10.78
2022-12-25T17:41:17.963Z,10.80
2022-12-25T17:43:45.701Z,10.83
2022-12-25T17:46:21.463Z,10.93
2022-12-25T17:48:49.962Z,10.96
2022-12-25T17:51:21.265Z,10.97
2022-12-25T17:53:50.627Z,10.94
2022-12-25T17:56:18.484Z,10.96
2022-12-25T17:58:49.243Z,11.00
2022-12-25T18:01:16.675Z,10.99
2022-12-25T18:03:44.893Z,10.97
2022-12-25T18:06:14.817Z,10.93
2022-12-25T18:08:42.942Z,10.98
2022-12-25T18:11:15.275Z,11.03
2022-12-25T18:13:45.003Z,10.98
2022-12-25T18:16:13.103Z,11.01
2022-12-25T18:18:40.517Z,10.97
2022-12-25T18:21:07.733Z,10.98
2022-12-25T18:23:35.738Z,10.94
2022-12-25T18:26:04.307Z,10.99
2022-12-25T18:28:30.990Z,10.98
2022-12-25T18:30:57.700Z,11.00
2022-12-25T18:33:25.074Z,10.94
2022-12-25T18:36:00.418Z,10.97
2022-12-25T18:38:27.636Z,10.97
2022-12-25T18:40:55.889Z,10.92
2022-12-25T18:43:53.500Z,10.96
2022-12-25T18:46:10.240Z,10.97
2022-12-25T18:48:37.657Z,10.95
2022-12-25T18:51:07.934Z,10.96
2022-12-25T18:53:35.443Z,10.95
2022-12-25T18:56:10.716Z,10.95
2022-12-25T18:58:40.331Z,10.96
2022-12-25T19:01:20.066Z,11.01
2022-12-25T19:03:48.855Z,10.95
2022-12-25T19:06:20.045Z,10.97
2022-12-25T19:08:46.772Z,10.95
2022-12-25T19:11:13.770Z,10.97
2022-12-25T19:13:40.448Z,10.91
2022-12-25T19:16:07.127Z,10.98
2022-12-25T19:18:33.914Z,10.96
2022-12-25T19:21:05.280Z,11.00
2022-12-25T19:23:32.084Z,11.00
2022-12-25T19:25:58.566Z,10.97
2022-12-25T19:28:25.446Z,10.96
2022-12-25T19:30:55.624Z,10.96
2022-12-25T19:33:22.871Z,10.94
2022-12-25T19:35:49.586Z,10.91
2022-12-25T19:38:16.256Z,10.89
2022-12-25T19:41:00.224Z,10.92
2022-12-25T19:43:32.744Z,10.96
2022-12-25T19:46:00.203Z,10.93
2022-12-25T19:48:27.209Z,10.91
2022-12-25T19:50:54.562Z,10.97
2022-12-25T19:53:23.735Z,10.95
2022-12-25T19:55:53.867Z,10.95
2022-12-25T19:58:21.965Z,10.97
2022-12-25T20:01:05.932Z,11.00
2022-12-25T20:03:34.469Z,11.00
2022-12-25T20:06:02.666Z,10.98
2022-12-25T20:08:29.152Z,11.04
2022-12-25T20:10:55.773Z,11.04
2022-12-25T20:13:22.620Z,11.06
2022-12-25T20:15:49.247Z,11.04
2022-12-25T20:18:16.804Z,11.01
2022-12-25T20:20:44.441Z,10.99
2022-12-25T20:23:11.383Z,10.99
2022-12-25T20:25:43.766Z,11.01
2022-12-25T20:28:10.523Z,10.99
2022-12-25T20:30:40.618Z,10.98
2022-12-25T20:33:07.389Z,10.99
2022-12-25T20:35:33.937Z,10.98
2022-12-25T20:38:00.572Z,10.93
2022-12-25T20:40:27.347Z,10.91
2022-12-25T20:42:54.157Z,10.97
2022-12-25T20:45:20.813Z,10.96
2022-12-25T20:47:47.556Z,10.92
2022-12-25T20:50:14.140Z,10.88
2022-12-25T20:52:40.607Z,10.87
2022-12-25T20:55:07.300Z,10.92
2022-12-25T20:57:33.801Z,10.89
2022-12-25T21:00:00.562Z,10.84
2022-12-25T21:02:34.689Z,10.86
2022-12-25T21:05:03.168Z,10.79
2022-12-25T21:07:29.721Z,10.83
2022-12-25T21:09:56.251Z,10.75
2022-12-25T21:12:22.756Z,10.75
2022-12-25T21:14:49.226Z,10.80
2022-12-25T21:17:15.772Z,10.75
2022-12-25T21:19:42.459Z,10.78
2022-12-25T21:22:09.222Z,10.74
2022-12-25T21:24:35.883Z,10.66
2022-12-25T21:27:02.370Z,10.75
2022-12-25T21:29:28.887Z,10.72
2022-12-25T21:32:13.933Z,10.70
2022-12-25T21:34:40.559Z,10.69
2022-12-25T21:37:07.072Z,10.76
2022-12-25T21:39:33.512Z,10.80
2022-12-25T21:42:00.296Z,10.80
2022-12-25T21:44:26.835Z,10.84
2022-12-25T21:46:53.364Z,10.91
2022-12-25T21:49:39.012Z,10.99
2022-12-25T21:52:08.427Z,10.98
2022-12-25T21:54:35.538Z,10.91
2022-12-25T21:57:02.070Z,10.94
2022-12-25T21:59:28.545Z,11.05
2022-12-25T22:01:55.162Z,11.10
2022-12-25T22:04:22.955Z,11.12
2022-12-25T22:07:12.594Z,11.14
2022-12-25T22:09:39.263Z,11.16
2022-12-25T22:12:30.170Z,11.15
2022-12-25T22:15:06.515Z,11.18
2022-12-25T22:17:55.481Z,11.22
2022-12-25T22:20:34.742Z,11.20
2022-12-25T22:23:01.973Z,11.18
2022-12-25T22:25:28.498Z,11.12
2022-12-25T22:27:55.202Z,11.09
2022-12-25T22:30:28.149Z,11.06
2022-12-25T22:32:55.515Z,11.06
2022-12-25T22:35:22.235Z,11.21
2022-12-25T22:37:49.567Z,11.10
2022-12-25T22:40:17.933Z,11.15
2022-12-25T22:42:44.515Z,11.07
2022-12-25T22:45:12.017Z,11.15
2022-12-25T22:47:38.545Z,11.15
2022-12-25T22:50:05.475Z,11.15
2022-12-25T22:52:32.014Z,11.21
2022-12-25T22:54:58.565Z,11.23
2022-12-25T22:57:25.282Z,11.18
2022-12-25T22:59:53.017Z,11.19
2022-12-25T23:02:19.918Z,11.23
2022-12-25T23:04:46.581Z,11.26
2022-12-25T23:07:14.564Z,11.27
2022-12-25T23:09:42.135Z,11.29
2022-12-25T23:12:29.532Z,11.32
2022-12-25T23:14:56.902Z,11.32
2022-12-25T23:17:42.223Z,11.38
2022-12-25T23:20:28.044Z,11.35
2022-12-25T23:23:12.894Z,11.32
2022-12-25T23:25:58.009Z,11.33
2022-12-25T23:28:42.757Z,11.41
2022-12-25T23:31:09.425Z,11.44
2022-12-25T23:33:36.055Z,11.52
2022-12-25T23:36:02.588Z,11.53
2022-12-25T23:38:29.060Z,11.62
2022-12-25T23:40:55.689Z,11.56
2022-12-25T23:43:22.239Z,11.58
2022-12-25T23:45:48.907Z,11.62
2022-12-25T23:48:15.590Z,11.58
2022-12-25T23:50:42.071Z,11.53
2022-12-25T23:53:10.026Z,11.57
2022-12-25T23:55:36.647Z,11.62
2022-12-25T23:58:03.144Z,11.64
